Time;durP1;ratioP1;P1;durP2;ratioP2;P2;SDS_P1;SDS_P2;PMS_P1;PMS_P2;Temp;Humidity;BMP_temperature;BMP_pressure;BME280_temperature;BME280_humidity;BME280_pressure;Samples;Min_cycle;Max_cycle;Signal;HPM_P1;HPM_P2
2021/04/12 00:00:19;;;;;;;40.12;23.87;;;;;;;7.11;39.81;100413.39;1710646;82;21620;-69
2021/04/12 00:02:51;;;;;;;45.67;24.20;;;;;;;7.11;40.14;100407.25;1718526;82;21298;-70
2021/04/12 00:05:54;;;;;;;45.73;25.55;;;;;;;7.09;40.59;100411.75;1715319;82;21096;-69
2021/04/12 00:08:59;;;;;;;43.23;23.62;;;;;;;7.02;41.64;100406.77;1713208;82;21874;-71
2021/04/12 00:11:42;;;;;;;51.13;25.77;;;;;;;6.90;41.77;100405.98;1728165;82;21128;-70
2021/04/12 00:14:23;;;;;;;41.28;23.95;;;;;;;6.78;42.23;100411.34;1724422;81;21615;-71
2021/04/12 00:17:09;;;;;;;48.05;25.32;;;;;;;6.73;41.64;100414.16;1741542;81;21134;-69
2021/04/12 00:20:07;;;;;;;46.95;23.22;;;;;;;6.72;42.18;100410.28;1730676;83;21131;-70
2021/04/12 00:22:46;;;;;;;40.45;23.80;;;;;;;6.66;42.62;100410.11;1730730;83;21325;-70
2021/04/12 00:25:39;;;;;;;40.30;22.45;;;;;;;6.61;42.48;100401.57;1779222;79;23572;-70
2021/04/12 00:28:16;;;;;;;40.10;21.45;;;;;;;6.54;43.09;100405.38;1734836;82;21144;-70
2021/04/12 00:31:05;;;;;;;42.43;23.22;;;;;;;6.52;43.04;100398.00;1688369;84;21328;-70
2021/04/12 00:33:54;;;;;;;43.70;24.02;;;;;;;6.52;42.81;100390.13;1696376;84;21123;-70
2021/04/12 00:36:30;;;;;;;44.08;24.20;;;;;;;6.58;41.95;100390.33;1710560;83;21170;-70
2021/04/12 00:39:12;;;;;;;49.33;26.87;;;;;;;6.66;41.85;100390.84;1708563;83;21211;-70
2021/04/12 00:41:59;;;;;;;52.83;28.85;;;;;;;6.66;41.82;100395.66;1696402;84;21206;-69
2021/04/12 00:44:46;;;;;;;54.25;29.05;;;;;;;6.64;41.81;100396.17;1713463;83;21570;-70
2021/04/12 00:47:35;;;;;;;59.95;30.25;;;;;;;6.60;42.01;100393.28;1700269;83;21296;-69
2021/04/12 00:50:26;;;;;;;59.93;31.40;;;;;;;6.56;42.06;100399.13;1696578;84;21203;-69
2021/04/12 00:53:43;;;;;;;52.25;26.65;;;;;;;6.52;42.12;100395.38;1701877;83;21317;-70
2021/04/12 00:56:29;;;;;;;46.25;26.25;;;;;;;6.48;42.11;100403.00;1723080;83;21154;-70
2021/04/12 00:59:06;;;;;;;40.88;23.50;;;;;;;6.42;42.31;100392.31;1704557;83;21631;-70
2021/04/12 01:01:48;;;;;;;45.92;24.47;;;;;;;6.38;42.81;100398.59;1705825;83;21107;-70
2021/04/12 01:04:35;;;;;;;46.05;22.80;;;;;;;6.33;42.56;100393.55;1724292;83;21296;-70
2021/04/12 01:07:45;;;;;;;46.83;24.37;;;;;;;6.28;42.68;100392.89;1706202;83;21190;-70
2021/04/12 01:10:48;;;;;;;44.05;24.27;;;;;;;6.21;42.92;100394.06;1719361;83;21150;-69
2021/04/12 01:13:47;;;;;;;44.60;24.87;;;;;;;6.12;43.19;100390.52;1725844;83;21320;-70
2021/04/12 01:16:45;;;;;;;44.67;24.85;;;;;;;6.02;43.09;100388.71;1705206;83;21281;-69
2021/04/12 01:19:47;;;;;;;57.78;28.23;;;;;;;5.91;43.42;100380.78;1717571;83;21582;-70
2021/04/12 01:22:53;;;;;;;55.45;28.02;;;;;;;5.79;43.86;100383.90;1698787;83;21560;-71
2021/04/12 01:26:00;;;;;;;63.23;31.55;;;;;;;5.71;44.17;100380.27;1685763;84;21777;-70
2021/04/12 01:30:16;;;;;;;67.17;31.25;;;;;;;5.65;44.50;100377.05;1812436;79;22260;-70
2021/04/12 01:33:30;;;;;;;62.13;30.62;;;;;;;5.55;44.65;100372.61;1761290;81;21316;-70
2021/04/12 01:36:24;;;;;;;62.98;29.75;;;;;;;5.50;44.90;100368.00;1747244;81;21583;-69
2021/04/12 01:39:12;;;;;;;58.83;29.67;;;;;;;5.46;45.03;100360.73;1755733;82;21202;-69
2021/04/12 01:42:09;;;;;;;65.00;32.63;;;;;;;5.46;45.20;100366.42;1744580;81;21177;-69
2021/04/12 01:45:15;;;;;;;54.48;29.00;;;;;;;5.46;45.20;100359.86;1749009;81;21126;-70
2021/04/12 01:48:35;;;;;;;59.65;29.12;;;;;;;5.44;45.05;100357.31;1738418;81;21330;-70
2021/04/12 01:51:50;;;;;;;57.45;28.50;;;;;;;5.46;45.30;100351.56;1755253;81;21305;-70
2021/04/12 01:55:07;;;;;;;71.30;32.65;;;;;;;5.44;46.74;100345.97;1755535;81;21195;-71
2021/04/12 01:57:57;;;;;;;69.37;33.90;;;;;;;5.37;46.00;100339.66;1760867;81;21625;-70
2021/04/12 02:00:59;;;;;;;69.62;31.73;;;;;;;5.33;46.03;100335.89;1759391;81;21145;-70
2021/04/12 02:03:59;;;;;;;54.98;27.40;;;;;;;5.27;46.11;100332.19;1746494;81;21142;-70
2021/04/12 02:06:41;;;;;;;52.40;26.02;;;;;;;5.23;45.96;100331.45;1726152;83;21313;-71
2021/04/12 02:10:03;;;;;;;54.60;27.85;;;;;;;5.24;45.97;100330.54;1744685;81;21158;-70
2021/04/12 02:12:55;;;;;;;53.17;26.48;;;;;;;5.29;45.64;100328.59;1759009;81;21129;-71
2021/04/12 02:15:52;;;;;;;47.43;25.80;;;;;;;5.41;45.74;100325.50;1806390;79;23103;-71
2021/04/12 02:18:36;;;;;;;47.40;26.00;;;;;;;5.40;45.39;100322.47;1789383;80;21626;-70
2021/04/12 02:21:12;;;;;;;42.40;25.62;;;;;;;5.47;45.26;100318.30;1786314;80;21611;-69
2021/04/12 02:24:00;;;;;;;46.25;25.62;;;;;;;5.53;44.91;100323.30;1784912;80;21167;-71
2021/04/12 02:26:35;;;;;;;44.93;24.65;;;;;;;5.59;44.76;100321.75;1785990;80;21281;-70
2021/04/12 02:29:43;;;;;;;43.60;26.73;;;;;;;5.65;44.57;100319.31;1722166;83;21139;-70
2021/04/12 02:32:42;;;;;;;44.03;26.12;;;;;;;5.72;44.51;100330.81;1691469;83;21213;-70
2021/04/12 02:35:39;;;;;;;52.90;28.67;;;;;;;5.79;44.43;100326.62;1676762;84;21178;-71
2021/04/12 02:39:02;;;;;;;44.03;25.95;;;;;;;5.83;44.40;100320.33;1701396;84;21167;-71
2021/04/12 02:42:17;;;;;;;45.12;25.48;;;;;;;5.82;44.38;100315.98;1613686;89;21178;-70
2021/04/12 02:45:27;;;;;;;51.77;27.60;;;;;;;5.74;44.56;100314.55;1703044;84;21568;-71
2021/04/12 02:48:17;;;;;;;60.25;31.35;;;;;;;5.67;44.66;100313.56;1692341;84;21195;-71
2021/04/12 02:51:11;;;;;;;58.13;27.73;;;;;;;5.60;44.99;100314.72;1702832;84;21744;-70
2021/04/12 02:54:09;;;;;;;57.15;30.68;;;;;;;5.54;45.21;100306.65;1702536;84;21323;-70
2021/04/12 02:56:45;;;;;;;67.00;33.55;;;;;;;5.47;45.48;100307.80;1695852;84;21171;-70
2021/04/12 02:59:35;;;;;;;69.32;35.83;;;;;;;5.39;45.53;100305.48;1639236;85;21326;-71
2021/04/12 03:02:29;;;;;;;57.13;30.15;;;;;;;5.34;45.65;100297.79;1642934;84;21201;-71
2021/04/12 03:05:24;;;;;;;61.88;30.52;;;;;;;5.31;45.66;100303.17;1705602;84;21171;-71
2021/04/12 03:08:36;;;;;;;54.03;29.12;;;;;;;5.30;46.05;100298.83;1668323;85;21141;-70
2021/04/12 03:11:45;;;;;;;68.60;31.42;;;;;;;5.31;45.88;100293.15;1690360;85;21321;-71
2021/04/12 03:14:38;;;;;;;60.90;30.75;;;;;;;5.38;45.84;100290.22;1680838;85;21158;-71
2021/04/12 03:17:14;;;;;;;64.82;32.53;;;;;;;5.46;45.78;100285.10;1673619;85;21172;-71
2021/04/12 03:20:20;;;;;;;65.25;33.73;;;;;;;5.53;45.69;100281.32;1648476;85;21208;-71
2021/04/12 03:23:28;;;;;;;59.88;31.05;;;;;;;5.62;45.60;100281.41;1676797;85;21613;-71
2021/04/12 03:26:42;;;;;;;57.70;31.57;;;;;;;5.74;45.43;100280.44;1665727;85;21326;-71
2021/04/12 03:29:33;;;;;;;51.92;29.60;;;;;;;5.87;45.27;100279.45;1614558;88;21385;-71
2021/04/12 03:32:11;;;;;;;67.10;32.60;;;;;;;5.97;45.26;100279.94;1625609;88;21209;-71
2021/04/12 03:35:09;;;;;;;59.35;32.63;;;;;;;6.02;45.27;100287.19;1662143;85;21195;-71
2021/04/12 03:38:01;;;;;;;60.33;31.80;;;;;;;6.09;45.24;100285.14;1705127;83;21128;-69
2021/04/12 03:40:39;;;;;;;59.70;32.10;;;;;;;6.14;45.25;100284.92;1683776;84;21305;-69
2021/04/12 03:43:24;;;;;;;60.48;31.23;;;;;;;6.17;45.31;100278.24;1673932;85;21284;-70
2021/04/12 03:46:24;;;;;;;67.75;33.13;;;;;;;6.17;45.42;100283.02;1685905;85;21615;-69
2021/04/12 03:49:46;;;;;;;62.50;32.23;;;;;;;6.17;45.46;100283.49;1688679;83;22048;-69
2021/04/12 03:52:59;;;;;;;63.20;31.57;;;;;;;6.16;45.70;100278.68;1742077;82;21702;-68
2021/04/12 03:56:04;;;;;;;61.85;33.95;;;;;;;6.10;45.92;100275.48;1744071;82;21180;-70
2021/04/12 03:58:48;;;;;;;63.33;32.23;;;;;;;6.02;46.20;100276.68;1744748;82;21376;-69
2021/04/12 04:02:07;;;;;;;65.52;34.10;;;;;;;6.00;46.38;100273.26;1745420;81;21179;-70
2021/04/12 04:05:14;;;;;;;62.40;33.92;;;;;;;6.03;46.36;100267.02;1740636;82;21265;-70
2021/04/12 04:08:02;;;;;;;56.55;32.05;;;;;;;6.11;46.47;100265.38;1755723;82;21143;-69
2021/04/12 04:10:38;;;;;;;55.73;31.15;;;;;;;6.18;46.49;100266.82;1755060;82;21342;-68
2021/04/12 04:13:39;;;;;;;64.77;31.35;;;;;;;6.26;46.53;100275.20;1744373;82;21171;-69
2021/04/12 04:16:15;;;;;;;61.58;32.03;;;;;;;6.36;46.38;100269.93;1731721;80;21696;-70
2021/04/12 04:19:35;;;;;;;55.28;31.42;;;;;;;6.53;46.25;100268.33;1740977;82;21180;-70
2021/04/12 04:22:43;;;;;;;54.15;30.43;;;;;;;6.71;45.89;100267.50;1752972;80;21727;-69
2021/04/12 04:25:48;;;;;;;60.70;31.48;;;;;;;6.96;45.48;100267.66;1760433;80;21207;-70
2021/04/12 04:28:52;;;;;;;54.67;31.50;;;;;;;7.23;45.10;100272.53;1741335;82;21154;-69
2021/04/12 04:32:02;;;;;;;59.60;31.35;;;;;;;7.45;45.09;100266.23;1724543;80;21382;-69
2021/04/12 04:35:04;;;;;;;59.50;31.37;;;;;;;7.60;44.90;100264.16;1741013;82;21147;-69
2021/04/12 04:38:31;;;;;;;61.13;34.73;;;;;;;7.71;44.98;100272.38;1717515;83;21202;-69
2021/04/12 04:41:22;;;;;;;69.72;36.00;;;;;;;7.75;45.16;100274.39;1742886;82;21290;-70
2021/04/12 04:44:13;;;;;;;67.53;36.17;;;;;;;7.80;45.33;100259.66;1819149;79;23126;-68
2021/04/12 04:47:05;;;;;;;68.78;35.70;;;;;;;7.78;45.39;100260.22;1792824;80;21171;-69
2021/04/12 04:50:17;;;;;;;66.17;35.83;;;;;;;7.86;45.45;100260.67;1789257;80;21281;-70
2021/04/12 04:53:23;;;;;;;75.22;37.03;;;;;;;8.00;45.03;100270.03;1761522;81;21658;-70
2021/04/12 04:56:02;;;;;;;78.00;36.77;;;;;;;8.24;44.63;100262.28;1761491;81;21159;-69
2021/04/12 04:59:18;;;;;;;68.37;37.60;;;;;;;8.48;44.22;100261.00;1784389;80;21158;-69
2021/04/12 05:02:25;;;;;;;72.97;36.63;;;;;;;8.73;44.12;100261.45;1787847;80;21167;-69
2021/04/12 05:05:24;;;;;;;65.17;36.55;;;;;;;8.97;44.10;100261.42;1788295;80;21635;-69
2021/04/12 05:08:09;;;;;;;63.28;34.90;;;;;;;9.21;44.47;100250.44;1780306;80;21151;-70
2021/04/12 05:10:48;;;;;;;60.73;34.80;;;;;;;9.44;44.86;100243.84;1768868;80;21143;-70
2021/04/12 05:13:42;;;;;;;60.85;32.83;;;;;;;9.64;44.59;100249.29;1789380;80;21158;-69
2021/04/12 05:16:48;;;;;;;57.40;32.53;;;;;;;9.81;45.06;100243.48;1780650;80;21178;-70
2021/04/12 05:19:39;;;;;;;51.95;30.45;;;;;;;10.00;43.79;100233.52;1704846;81;21191;-70
2021/04/12 05:22:49;;;;;;;54.83;30.82;;;;;;;10.14;43.62;100235.32;1761157;81;21198;-70
2021/04/12 05:25:58;;;;;;;58.20;31.25;;;;;;;10.28;42.97;100227.88;1771224;80;21627;-69
2021/04/12 05:28:54;;;;;;;56.08;30.95;;;;;;;10.42;42.41;100222.22;1786205;80;21130;-69
2021/04/12 05:31:33;;;;;;;51.23;30.77;;;;;;;10.51;42.11;100218.16;1781260;80;21179;-69
2021/04/12 05:34:27;;;;;;;51.23;30.25;;;;;;;10.58;42.32;100210.22;1700585;84;21585;-70
2021/04/12 05:37:25;;;;;;;51.53;30.05;;;;;;;10.67;42.00;100215.41;1703170;84;21234;-69
2021/04/12 05:40:29;;;;;;;47.93;30.40;;;;;;;10.75;41.83;100213.11;1729171;83;21206;-69
2021/04/12 05:43:39;;;;;;;50.33;28.87;;;;;;;10.84;41.90;100208.55;1723293;83;21356;-70
2021/04/12 05:46:37;;;;;;;45.45;28.75;;;;;;;10.94;41.49;100204.36;1716075;83;21159;-69
2021/04/12 05:49:28;;;;;;;42.93;27.98;;;;;;;10.98;40.88;100199.27;1716147;83;21168;-69
2021/04/12 05:52:27;;;;;;;52.53;29.00;;;;;;;11.00;41.22;100195.19;1716136;83;21183;-69
2021/04/12 05:55:34;;;;;;;52.50;30.23;;;;;;;11.06;40.95;100202.73;1715636;83;21679;-69
2021/04/12 05:58:40;;;;;;;49.53;30.92;;;;;;;11.14;40.54;100209.69;1722002;82;21184;-70
2021/04/12 06:01:24;;;;;;;47.50;29.30;;;;;;;11.25;40.45;100210.78;1715793;83;21723;-69
2021/04/12 06:04:32;;;;;;;46.40;28.20;;;;;;;11.34;40.84;100211.98;1752527;80;21207;-69
2021/04/12 06:07:08;;;;;;;49.50;27.55;;;;;;;11.43;40.06;100204.73;1751402;82;21171;-70
2021/04/12 06:10:00;;;;;;;48.42;25.35;;;;;;;11.57;40.00;100206.01;1687251;83;21176;-69
2021/04/12 06:13:06;;;;;;;44.70;26.17;;;;;;;11.72;39.52;100201.94;1694832;83;21616;-71
2021/04/12 06:16:00;;;;;;;44.20;25.52;;;;;;;11.88;38.86;100208.35;1751613;81;21183;-69
2021/04/12 06:18:45;;;;;;;;;;;;;;;11.95;38.57;100205.20;1764967;80;21168;-70
2021/04/12 06:21:23;;;;;;;41.00;23.67;;;;;;;12.00;38.37;100201.41;1768432;80;20230;-70
2021/04/12 06:24:28;;;;;;;39.33;24.02;;;;;;;11.96;38.70;100196.80;1715541;83;21179;-70
2021/04/12 06:27:37;;;;;;;42.03;22.50;;;;;;;11.99;38.57;100197.89;1782223;80;21603;-70
2021/04/12 06:30:26;;;;;;;38.13;22.62;;;;;;;12.08;38.56;100199.06;1751793;80;21617;-70
2021/04/12 06:33:14;;;;;;;32.93;21.57;;;;;;;12.20;37.90;100191.59;1751218;82;21163;-70
2021/04/12 06:36:19;;;;;;;32.13;19.98;;;;;;;12.29;37.18;100186.95;1763658;80;21174;-69
2021/04/12 06:39:25;;;;;;;38.67;21.73;;;;;;;12.42;37.33;100204.66;1780087;80;21714;-70
2021/04/12 06:42:48;;;;;;;39.42;20.25;;;;;;;12.62;36.76;100201.44;1752298;80;21679;-69
2021/04/12 06:45:32;;;;;;;36.08;19.95;;;;;;;12.82;36.53;100197.81;1766832;80;21568;-69
2021/04/12 06:48:29;;;;;;;62.80;21.48;;;;;;;12.99;36.09;100191.26;1715681;83;21633;-69
2021/04/12 06:51:07;;;;;;;37.53;20.08;;;;;;;13.08;36.32;100188.41;1666023;83;21179;-70
2021/04/12 06:54:04;;;;;;;30.70;18.90;;;;;;;13.28;35.74;100187.77;1757506;80;21155;-69
2021/04/12 06:57:05;;;;;;;32.75;19.00;;;;;;;13.43;34.95;100170.37;1715761;80;21188;-69
2021/04/12 07:00:05;;;;;;;34.40;21.68;;;;;;;13.47;35.12;100171.82;1756250;80;21179;-70
2021/04/12 07:03:12;;;;;;;29.20;19.87;;;;;;;13.54;35.73;100169.08;1765830;80;21108;-69
2021/04/12 07:06:20;;;;;;;27.50;17.17;;;;;;;13.65;34.78;100158.94;1780725;80;21154;-70
2021/04/12 07:09:25;;;;;;;29.95;18.85;;;;;;;13.72;35.46;100160.63;1725209;80;21190;-70
2021/04/12 07:12:41;;;;;;;31.25;18.45;;;;;;;13.81;35.16;100162.61;1768261;80;21143;-69
2021/04/12 07:15:41;;;;;;;28.15;17.73;;;;;;;13.88;35.22;100158.98;1775035;80;21128;-70
2021/04/12 07:18:31;;;;;;;25.05;16.20;;;;;;;13.97;34.05;100156.09;1714963;83;21183;-71
2021/04/12 07:21:42;;;;;;;30.60;17.67;;;;;;;13.97;34.05;100156.09;1698050;83;21298;-71
2021/04/12 07:24:49;;;;;;;26.52;15.65;;;;;;;13.94;34.88;100155.84;1681942;85;21326;-70
2021/04/12 07:27:48;;;;;;;23.90;15.30;;;;;;;13.98;34.15;100144.46;1696739;83;21758;-71
2021/04/12 07:30:33;;;;;;;25.52;14.90;;;;;;;13.95;33.82;100148.21;1702451;83;21249;-70
2021/04/12 07:33:38;;;;;;;23.47;14.98;;;;;;;13.89;33.80;100144.23;1751673;81;21169;-70
2021/04/12 07:36:36;;;;;;;25.60;15.58;;;;;;;13.88;33.85;100143.03;1751248;80;21175;-70
2021/04/12 07:39:31;;;;;;;22.98;15.35;;;;;;;13.93;34.21;100142.19;1751158;82;21183;-70
2021/04/12 07:42:41;;;;;;;24.43;15.32;;;;;;;14.03;33.56;100129.02;1754711;80;21657;-69
2021/04/12 07:45:29;;;;;;;24.18;15.08;;;;;;;14.08;33.29;100131.67;1706331;84;21202;-69
2021/04/12 07:48:29;;;;;;;25.37;14.85;;;;;;;14.11;33.43;100126.59;1692893;84;21716;-70
2021/04/12 07:51:20;;;;;;;27.50;16.20;;;;;;;14.20;32.89;100133.83;1664712;84;21575;-70
2021/04/12 07:54:18;;;;;;;24.52;16.20;;;;;;;14.26;32.88;100128.52;1717386;83;21320;-69
2021/04/12 07:57:12;;;;;;;22.95;15.30;;;;;;;14.32;32.83;100123.19;1678900;85;21352;-69
2021/04/12 08:00:05;;;;;;;23.62;15.53;;;;;;;14.42;32.86;100121.01;1697258;84;21178;-69
2021/04/12 08:03:23;;;;;;;23.15;15.38;;;;;;;14.42;32.86;100121.01;1650216;84;21195;-70
2021/04/12 08:06:34;;;;;;;22.45;15.00;;;;;;;14.45;32.59;100112.39;1690666;84;21345;-71
2021/04/12 08:09:33;;;;;;;22.30;15.65;;;;;;;14.52;32.24;100115.77;1702869;84;21622;-72
2021/04/12 08:12:24;;;;;;;20.77;13.62;;;;;;;14.63;32.17;100103.39;1659212;84;21813;-70
2021/04/12 08:15:24;;;;;;;27.60;13.65;;;;;;;14.71;31.80;100106.33;1678620;84;21195;-70
2021/04/12 08:18:23;;;;;;;22.32;15.10;;;;;;;14.80;31.41;100099.41;1674798;84;21619;-70
2021/04/12 08:21:45;;;;;;;23.32;15.68;;;;;;;14.88;30.61;100104.42;1674861;84;21210;-70
2021/04/12 08:24:47;;;;;;;25.12;16.07;;;;;;;14.86;31.32;100091.74;1675227;84;21170;-70
2021/04/12 08:27:50;;;;;;;30.92;15.05;;;;;;;14.88;31.41;100098.27;1647952;84;21367;-70
2021/04/12 08:30:42;;;;;;;26.73;15.72;;;;;;;14.93;32.32;100092.57;1701599;84;21348;-70
2021/04/12 08:33:24;;;;;;;26.02;14.65;;;;;;;15.06;32.02;100095.41;1711247;83;22433;-69
2021/04/12 08:36:22;;;;;;;27.50;16.37;;;;;;;15.04;31.91;100091.19;1681190;85;21186;-70
2021/04/12 08:39:30;;;;;;;25.57;16.15;;;;;;;14.95;31.96;100093.27;1692673;84;21198;-70
2021/04/12 08:42:22;;;;;;;26.23;16.48;;;;;;;14.87;32.36;100100.09;1668122;85;21310;-70
2021/04/12 08:45:23;;;;;;;25.65;17.48;;;;;;;14.89;31.99;100083.48;1656553;85;21186;-69
2021/04/12 08:48:24;;;;;;;56.90;17.75;;;;;;;14.79;32.43;100081.23;1682511;84;21138;-69
2021/04/12 08:51:06;;;;;;;26.33;16.45;;;;;;;14.68;32.83;100073.28;1674715;84;21332;-70
2021/04/12 08:54:13;;;;;;;25.30;15.80;;;;;;;14.60;32.64;100068.56;1684590;84;21730;-70
2021/04/12 08:57:06;;;;;;;36.48;26.15;;;;;;;14.54;33.26;100065.93;1674268;84;21163;-70
2021/04/12 09:00:32;;;;;;;26.82;16.77;;;;;;;14.51;33.47;100052.03;1647223;84;21308;-69
2021/04/12 09:03:42;;;;;;;43.55;25.05;;;;;;;14.56;33.79;100058.64;1675335;84;21222;-69
2021/04/12 09:06:55;;;;;;;52.93;34.65;;;;;;;14.58;33.75;100054.05;1666187;85;21183;-70
2021/04/12 09:09:56;;;;;;;43.73;24.70;;;;;;;14.53;34.14;100054.92;1678605;84;21182;-70
2021/04/12 09:13:06;;;;;;;36.30;22.62;;;;;;;14.49;34.75;100056.62;1679213;84;21191;-70
2021/04/12 09:15:47;;;;;;;159.55;25.70;;;;;;;14.48;34.89;100051.80;1678110;84;21171;-70
2021/04/12 09:18:37;;;;;;;41.77;27.22;;;;;;;14.46;35.00;100043.08;1684453;84;21675;-69
2021/04/12 09:21:23;;;;;;;42.48;27.17;;;;;;;14.35;35.56;100043.14;1676455;85;21178;-70
2021/04/12 09:24:16;;;;;;;29.15;19.92;;;;;;;14.35;35.56;100043.14;1664589;84;21228;-71
2021/04/12 09:27:23;;;;;;;33.08;21.12;;;;;;;14.27;35.18;100033.09;1672017;85;21175;-71
2021/04/12 09:30:42;;;;;;;37.28;19.32;;;;;;;14.20;35.11;100029.27;1667758;84;21211;-70
2021/04/12 09:34:05;;;;;;;27.20;16.75;;;;;;;14.12;34.93;100021.91;1673742;86;21207;-69
2021/04/12 09:37:23;;;;;;;23.87;14.23;;;;;;;14.05;35.23;100016.71;1665653;84;22324;-70
2021/04/12 09:40:17;;;;;;;22.85;12.80;;;;;;;13.96;35.24;100020.13;1663669;85;21318;-70
2021/04/12 09:43:34;;;;;;;14.80;11.08;;;;;;;13.86;34.65;100010.23;1641610;85;21333;-69
2021/04/12 09:46:51;;;;;;;18.30;12.53;;;;;;;13.81;33.52;100003.11;1629131;87;21829;-70
2021/04/12 09:49:49;;;;;;;26.90;18.27;;;;;;;13.80;33.69;100006.73;1670006;85;21206;-70
2021/04/12 09:52:37;;;;;;;20.25;12.82;;;;;;;13.85;33.86;99995.71;1729292;81;21139;-71
2021/04/12 09:55:37;;;;;;;35.65;20.85;;;;;;;13.85;33.86;99995.71;1749131;81;21334;-72
2021/04/12 09:58:38;;;;;;;23.77;13.72;;;;;;;13.90;33.33;99989.07;1737478;81;21095;-71
2021/04/12 10:01:34;;;;;;;15.48;9.90;;;;;;;13.95;33.74;99991.84;1728852;81;21841;-71
2021/04/12 10:04:41;;;;;;;18.05;11.00;;;;;;;14.04;33.46;99987.09;1731891;81;21280;-70
2021/04/12 10:07:44;;;;;;;20.20;12.15;;;;;;;14.15;33.49;99975.60;1681788;83;21184;-69
2021/04/12 10:10:21;;;;;;;16.97;11.25;;;;;;;14.28;34.18;99970.95;1727655;81;21340;-70
2021/04/12 10:13:06;;;;;;;20.90;11.60;;;;;;;14.28;34.18;99970.95;1663759;84;21356;-70
2021/04/12 10:16:05;;;;;;;17.90;10.80;;;;;;;14.25;34.37;99976.53;1663010;85;21198;-70
2021/04/12 10:18:43;;;;;;;17.98;11.65;;;;;;;14.25;34.37;99976.53;1683797;84;21139;-71
2021/04/12 10:21:27;;;;;;;26.97;12.23;;;;;;;14.23;34.42;99968.69;1684442;85;21208;-71
2021/04/12 10:24:15;;;;;;;15.53;10.55;;;;;;;14.22;34.65;99980.29;1677791;85;21754;-70
2021/04/12 10:26:47;;;;;;;16.65;10.60;;;;;;;14.19;34.37;99980.52;1675077;84;21313;-71
2021/04/12 10:29:43;;;;;;;15.30;10.70;;;;;;;14.21;34.02;99977.77;1767854;79;23099;-72
2021/04/12 10:32:18;;;;;;;21.07;11.18;;;;;;;14.11;34.62;99964.36;1746386;80;21099;-71
2021/04/12 10:34:58;;;;;;;19.65;10.15;;;;;;;14.11;34.62;99964.36;1730700;82;21179;-70
2021/04/12 10:38:03;;;;;;;17.55;10.03;;;;;;;14.16;35.05;99967.48;1741629;80;21332;-71
2021/04/12 10:40:42;;;;;;;16.52;9.20;;;;;;;14.15;33.86;99963.13;1749311;80;21579;-70
2021/04/12 10:43:22;;;;;;;15.08;8.50;;;;;;;14.15;33.86;99963.13;1708050;80;21173;-71
2021/04/12 10:46:00;;;;;;;15.15;8.80;;;;;;;14.09;34.99;99967.16;1727964;80;21289;-71
2021/04/12 10:48:34;;;;;;;19.15;9.38;;;;;;;14.05;35.62;99969.71;1740034;80;21694;-71
2021/04/12 10:51:22;;;;;;;13.75;7.55;;;;;;;14.02;36.53;99970.44;1758684;80;21199;-71
2021/04/12 10:53:55;;;;;;;12.10;8.25;;;;;;;13.96;39.57;99981.56;1729158;80;21325;-71
2021/04/12 10:56:48;;;;;;;14.58;9.95;;;;;;;13.85;40.03;99979.30;1739379;81;21133;-71
2021/04/12 10:59:46;;;;;;;12.23;9.45;;;;;;;13.75;40.16;99976.52;1746937;82;21590;-70
2021/04/12 11:02:50;;;;;;;12.90;9.15;;;;;;;13.75;40.16;99976.52;1786720;80;21175;-71
2021/04/12 11:05:21;;;;;;;13.13;8.25;;;;;;;13.70;40.86;99972.05;1695621;84;21332;-71
2021/04/12 11:08:13;;;;;;;10.68;7.70;;;;;;;13.67;42.77;99979.42;1709323;82;21163;-71
2021/04/12 11:11:19;;;;;;;11.93;7.65;;;;;;;13.67;42.09;99971.45;1694739;84;21197;-70
2021/04/12 11:13:52;;;;;;;12.50;8.60;;;;;;;13.67;42.09;99971.45;1680017;82;21163;-70
2021/04/12 11:16:46;;;;;;;14.30;8.10;;;;;;;13.71;42.39;99962.29;1690518;84;21182;-70
2021/04/12 11:19:30;;;;;;;17.57;9.35;;;;;;;13.76;41.50;99965.42;1671267;84;22179;-70
2021/04/12 11:22:47;;;;;;;13.55;8.15;;;;;;;13.82;41.90;99965.40;1706057;84;21611;-69
2021/04/12 11:25:23;;;;;;;14.30;8.95;;;;;;;13.93;42.59;99968.03;1693408;84;21398;-70
2021/04/12 11:28:18;;;;;;;14.63;9.53;;;;;;;13.98;42.11;99963.66;1706406;83;21410;-70
2021/04/12 11:30:52;;;;;;;;;;;;;;;13.88;42.30;99961.75;1692947;84;21303;-69
2021/04/12 11:34:12;;;;;;;14.65;9.23;;;;;;;13.76;43.52;99965.42;1684840;83;20277;-71
2021/04/12 11:37:28;;;;;;;19.07;9.93;;;;;;;13.64;44.62;99965.89;1671235;84;21675;-71
2021/04/12 11:40:12;;;;;;;19.73;10.45;;;;;;;13.54;45.99;99969.79;1683333;84;21186;-70
2021/04/12 11:42:42;;;;;;;18.25;10.85;;;;;;;13.39;47.38;99965.70;1691729;84;21214;-71
2021/04/12 11:45:19;;;;;;;15.43;10.95;;;;;;;13.26;47.76;99966.61;1731405;83;21171;-71
2021/04/12 11:47:57;;;;;;;15.70;10.28;;;;;;;13.19;48.11;99957.42;1682854;84;21289;-72
2021/04/12 11:50:42;;;;;;;19.05;11.03;;;;;;;13.11;49.24;99960.68;1714327;83;21317;-71
2021/04/12 11:53:24;;;;;;;14.68;9.63;;;;;;;13.11;49.24;99960.68;1697643;83;21203;-71
2021/04/12 11:56:03;;;;;;;25.88;11.80;;;;;;;13.04;50.84;99963.93;1667400;84;21566;-71
2021/04/12 11:58:45;;;;;;;17.92;12.33;;;;;;;13.04;50.84;99963.93;1705910;83;21127;-71
2021/04/12 12:01:50;;;;;;;23.77;13.32;;;;;;;12.95;51.96;99969.00;1669567;84;21138;-70
2021/04/12 12:04:40;;;;;;;21.70;13.50;;;;;;;12.87;53.45;99968.72;1685908;84;21611;-70
2021/04/12 12:07:36;;;;;;;20.62;14.03;;;;;;;12.72;54.03;99967.24;1683753;85;21322;-69
2021/04/12 12:10:29;;;;;;;24.27;14.78;;;;;;;12.57;54.44;99959.48;1660087;83;21199;-69
2021/04/12 12:13:07;;;;;;;21.75;13.98;;;;;;;12.46;55.17;99962.09;1705102;83;21202;-69
2021/04/12 12:15:59;;;;;;;28.90;15.00;;;;;;;12.40;55.80;99961.23;1693964;83;21159;-70
2021/04/12 12:18:42;;;;;;;24.75;15.75;;;;;;;12.34;56.12;99960.35;1691613;83;21333;-69
2021/04/12 12:21:29;;;;;;;25.55;15.08;;;;;;;12.29;56.54;99960.72;1676795;84;21324;-70
2021/04/12 12:24:14;;;;;;;20.35;13.90;;;;;;;12.25;56.82;99954.79;1671555;83;22036;-69
2021/04/12 12:27:07;;;;;;;20.55;13.43;;;;;;;12.21;57.21;99951.14;1671767;84;21170;-71
2021/04/12 12:29:58;;;;;;;22.75;14.07;;;;;;;12.28;57.30;99947.09;1694881;83;21612;-70
2021/04/12 12:32:37;;;;;;;22.35;15.28;;;;;;;12.25;57.50;99949.48;1647498;83;21309;-72
2021/04/12 12:35:26;;;;;;;25.37;15.90;;;;;;;12.08;58.36;99940.59;1683195;84;21158;-70
2021/04/12 12:38:05;;;;;;;29.25;16.73;;;;;;;11.97;59.18;99938.75;1730082;81;21598;-69
2021/04/12 12:40:49;;;;;;;26.95;15.55;;;;;;;11.86;60.31;99945.27;1718924;82;21179;-70
2021/04/12 12:43:33;;;;;;;26.23;16.57;;;;;;;11.84;60.70;99943.20;1729085;81;21143;-70
2021/04/12 12:46:08;;;;;;;;;;;;;;;11.86;61.12;99942.63;1727131;82;21096;-71
2021/04/12 12:48:48;;;;;;;21.12;15.20;;;;;;;11.75;61.26;99948.69;1734383;81;20275;-70
2021/04/12 12:51:42;;;;;;;24.80;15.60;;;;;;;11.60;61.92;99951.98;1705911;82;21191;-70
2021/04/12 12:54:42;;;;;;;24.75;14.40;;;;;;;11.52;62.78;99948.55;1775356;79;22981;-71
2021/04/12 12:57:30;;;;;;;23.65;15.25;;;;;;;11.56;62.73;99944.73;1734603;82;21686;-70
2021/04/12 13:00:10;;;;;;;21.95;14.45;;;;;;;11.67;62.47;99956.35;1738537;80;21190;-69
2021/04/12 13:02:40;;;;;;;20.08;12.33;;;;;;;11.61;62.20;99955.84;1733793;82;21146;-69
2021/04/12 13:05:27;;;;;;;17.73;11.35;;;;;;;11.55;62.45;99948.33;1746640;80;21710;-70
2021/04/12 13:08:12;;;;;;;19.30;11.70;;;;;;;11.49;61.68;99954.05;1741391;80;21535;-70
2021/04/12 13:10:44;;;;;;;16.90;10.95;;;;;;;11.40;61.35;99949.41;1740220;80;21316;-69
2021/04/12 13:13:29;;;;;;;17.42;10.85;;;;;;;11.36;61.34;99947.95;1736661;80;21158;-70
2021/04/12 13:16:16;;;;;;;16.30;11.10;;;;;;;11.46;60.78;99945.84;1742264;80;21269;-70
2021/04/12 13:18:59;;;;;;;15.25;11.40;;;;;;;11.44;60.33;99944.27;1736834;82;21188;-69
2021/04/12 13:21:30;;;;;;;18.67;12.88;;;;;;;11.37;60.51;99944.31;1740913;80;21138;-69
2021/04/12 13:24:29;;;;;;;17.57;11.68;;;;;;;11.31;60.94;99950.91;1736464;81;21180;-70